sensor_id;sensor_type;location;lat;lon;timestamp;temperature;humidity
216;HTU21D;70668;48.81286795;9.14184224;2024-03-23T00:52:35;9.46;91.34
216;HTU21D;70668;48.81286795;9.14184224;2024-03-23T00:55:01;9.57;90.76
216;HTU21D;70668;48.81286795;9.14184224;2024-03-23T00:57:27;9.83;88.83
216;HTU21D;70668;48.81286795;9.14184224;2024-03-23T00:59:53;10.00;88.06
216;HTU21D;70668;48.81286795;9.14184224;2024-03-23T01:02:19;10.09;87.64
216;HTU21D;70668;48.81286795;9.14184224;2024-03-23T01:04:45;10.79;83.84
216;HTU21D;70668;48.81286795;9.14184224;2024-03-23T01:07:11;10.36;86.61
216;HTU21D;70668;48.81286795;9.14184224;2024-03-23T01:09:40;10.85;83.67
216;HTU21D;70668;48.81286795;9.14184224;2024-03-23T01:12:06;11.64;79.56
216;HTU21D;70668;48.81286795;9.14184224;2024-03-23T01:14:32;12.28;75.99
216;HTU21D;70668;48.81286795;9.14184224;2024-03-23T01:16:58;12.22;77.06
216;HTU21D;70668;48.81286795;9.14184224;2024-03-23T01:19:24;12.11;77.56
216;HTU21D;70668;48.81286795;9.14184224;2024-03-23T01:21:50;12.31;76.42
216;HTU21D;70668;48.81286795;9.14184224;2024-03-23T01:24:16;12.44;75.32
216;HTU21D;70668;48.81286795;9.14184224;2024-03-23T01:26:44;12.45;76.37
216;HTU21D;70668;48.81286795;9.14184224;2024-03-23T01:29:10;12.74;74.31
216;HTU21D;70668;48.81286795;9.14184224;2024-03-23T01:31:37;12.63;74.29
216;HTU21D;70668;48.81286795;9.14184224;2024-03-23T01:34:03;12.61;73.93
216;HTU21D;70668;48.81286795;9.14184224;2024-03-23T01:36:29;12.81;72.94
216;HTU21D;70668;48.81286795;9.14184224;2024-03-23T01:38:54;12.71;74.20
216;HTU21D;70668;48.81286795;9.14184224;2024-03-23T01:41:20;12.64;75.36
216;HTU21D;70668;48.81286795;9.14184224;2024-03-23T01:43:49;12.82;74.64
216;HTU21D;70668;48.81286795;9.14184224;2024-03-23T01:46:15;12.96;73.99
216;HTU21D;70668;48.81286795;9.14184224;2024-03-23T01:48:42;13.24;71.71
216;HTU21D;70668;48.81286795;9.14184224;2024-03-23T01:51:08;13.00;73.51
216;HTU21D;70668;48.81286795;9.14184224;2024-03-23T01:53:34;13.09;74.04
216;HTU21D;70668;48.81286795;9.14184224;2024-03-23T01:56:02;13.04;74.50
216;HTU21D;70668;48.81286795;9.14184224;2024-03-23T01:58:28;12.89;75.08
216;HTU21D;70668;48.81286795;9.14184224;2024-03-23T02:00:57;13.04;73.63
216;HTU21D;70668;48.81286795;9.14184224;2024-03-23T02:03:23;12.84;74.35
216;HTU21D;70668;48.81286795;9.14184224;2024-03-23T02:05:49;12.71;76.07
216;HTU21D;70668;48.81286795;9.14184224;2024-03-23T02:08:17;12.64;75.63
216;HTU21D;70668;48.81286795;9.14184224;2024-03-23T02:10:43;12.50;76.08
216;HTU21D;70668;48.81286795;9.14184224;2024-03-23T02:13:09;12.53;76.18
216;HTU21D;70668;48.81286795;9.14184224;2024-03-23T02:15:35;12.50;76.89
216;HTU21D;70668;48.81286795;9.14184224;2024-03-23T02:18:04;12.45;76.57
216;HTU21D;70668;48.81286795;9.14184224;2024-03-23T02:20:30;12.38;76.82
216;HTU21D;70668;48.81286795;9.14184224;2024-03-23T02:22:58;12.35;77.09
216;HTU21D;70668;48.81286795;9.14184224;2024-03-23T02:25:24;12.33;77.48
216;HTU21D;70668;48.81286795;9.14184224;2024-03-23T02:27:51;12.29;78.33
216;HTU21D;70668;48.81286795;9.14184224;2024-03-23T02:30:17;12.21;78.76
216;HTU21D;70668;48.81286795;9.14184224;2024-03-23T02:32:42;12.12;79.53
216;HTU21D;70668;48.81286795;9.14184224;2024-03-23T02:35:09;12.07;80.01
216;HTU21D;70668;48.81286795;9.14184224;2024-03-23T02:37:34;12.18;78.91
216;HTU21D;70668;48.81286795;9.14184224;2024-03-23T02:40:04;12.01;79.82
216;HTU21D;70668;48.81286795;9.14184224;2024-03-23T02:42:30;12.10;79.31
216;HTU21D;70668;48.81286795;9.14184224;2024-03-23T02:44:56;12.11;79.55
216;HTU21D;70668;48.81286795;9.14184224;2024-03-23T02:47:22;12.28;78.43
216;HTU21D;70668;48.81286795;9.14184224;2024-03-23T02:49:48;12.14;79.68
216;HTU21D;70668;48.81286795;9.14184224;2024-03-23T02:52:14;12.06;80.41
216;HTU21D;70668;48.81286795;9.14184224;2024-03-23T02:54:40;12.02;79.98
216;HTU21D;70668;48.81286795;9.14184224;2024-03-23T02:57:10;12.10;79.69
216;HTU21D;70668;48.81286795;9.14184224;2024-03-23T02:59:35;12.08;80.81
216;HTU21D;70668;48.81286795;9.14184224;2024-03-23T03:02:01;12.15;79.73
216;HTU21D;70668;48.81286795;9.14184224;2024-03-23T03:04:27;12.07;81.31
216;HTU21D;70668;48.81286795;9.14184224;2024-03-23T03:06:53;11.98;80.84
216;HTU21D;70668;48.81286795;9.14184224;2024-03-23T03:09:19;11.97;81.17
216;HTU21D;70668;48.81286795;9.14184224;2024-03-23T03:11:45;11.75;82.63
216;HTU21D;70668;48.81286795;9.14184224;2024-03-23T03:14:13;11.71;82.56
216;HTU21D;70668;48.81286795;9.14184224;2024-03-23T03:16:39;11.36;85.25
216;HTU21D;70668;48.81286795;9.14184224;2024-03-23T03:19:05;11.57;83.19
216;HTU21D;70668;48.81286795;9.14184224;2024-03-23T03:21:31;11.39;85.67
216;HTU21D;70668;48.81286795;9.14184224;2024-03-23T03:23:58;11.84;82.65
216;HTU21D;70668;48.81286795;9.14184224;2024-03-23T03:26:24;11.77;84.64
216;HTU21D;70668;48.81286795;9.14184224;2024-03-23T03:28:50;11.62;83.94
216;HTU21D;70668;48.81286795;9.14184224;2024-03-23T03:31:19;11.49;85.49
216;HTU21D;70668;48.81286795;9.14184224;2024-03-23T03:33:45;11.37;85.34
216;HTU21D;70668;48.81286795;9.14184224;2024-03-23T03:36:11;11.32;85.93
216;HTU21D;70668;48.81286795;9.14184224;2024-03-23T03:38:37;11.66;83.92
216;HTU21D;70668;48.81286795;9.14184224;2024-03-23T03:41:03;11.59;84.08
216;HTU21D;70668;48.81286795;9.14184224;2024-03-23T03:43:29;11.49;85.42
216;HTU21D;70668;48.81286795;9.14184224;2024-03-23T03:45:56;11.31;85.72
216;HTU21D;70668;48.81286795;9.14184224;2024-03-23T03:48:25;11.20;86.54
216;HTU21D;70668;48.81286795;9.14184224;2024-03-23T03:50:52;11.25;86.35
216;HTU21D;70668;48.81286795;9.14184224;2024-03-23T03:53:18;11.28;86.51
216;HTU21D;70668;48.81286795;9.14184224;2024-03-23T03:55:44;11.14;87.29
216;HTU21D;70668;48.81286795;9.14184224;2024-03-23T03:58:10;0.00;89.31
216;HTU21D;70668;48.81286795;9.14184224;2024-03-23T04:00:36;10.74;88.79
216;HTU21D;70668;48.81286795;9.14184224;2024-03-23T04:03:02;11.00;87.64
216;HTU21D;70668;48.81286795;9.14184224;2024-03-23T04:05:31;11.08;87.30
216;HTU21D;70668;48.81286795;9.14184224;2024-03-23T04:07:57;11.33;86.85
216;HTU21D;70668;48.81286795;9.14184224;2024-03-23T04:10:23;10.86;89.28
216;HTU21D;70668;48.81286795;9.14184224;2024-03-23T04:12:49;10.96;89.02
216;HTU21D;70668;48.81286795;9.14184224;2024-03-23T04:15:15;11.12;87.96
216;HTU21D;70668;48.81286795;9.14184224;2024-03-23T04:17:41;11.18;88.21
216;HTU21D;70668;48.81286795;9.14184224;2024-03-23T04:20:07;11.33;87.10
216;HTU21D;70668;48.81286795;9.14184224;2024-03-23T04:22:37;11.71;85.64
216;HTU21D;70668;48.81286795;9.14184224;2024-03-23T04:25:03;11.78;85.69
216;HTU21D;70668;48.81286795;9.14184224;2024-03-23T04:27:29;11.87;87.44
216;HTU21D;70668;48.81286795;9.14184224;2024-03-23T04:29:55;11.84;91.11
216;HTU21D;70668;48.81286795;9.14184224;2024-03-23T04:32:22;10.89;94.84
216;HTU21D;70668;48.81286795;9.14184224;2024-03-23T04:34:48;10.58;99.96
216;HTU21D;70668;48.81286795;9.14184224;2024-03-23T04:37:14;10.33;102.00
216;HTU21D;70668;48.81286795;9.14184224;2024-03-23T04:39:42;10.13;102.89
216;HTU21D;70668;48.81286795;9.14184224;2024-03-23T04:42:08;10.27;104.52
216;HTU21D;70668;48.81286795;9.14184224;2024-03-23T04:44:34;10.27;105.94
216;HTU21D;70668;48.81286795;9.14184224;2024-03-23T04:47:00;10.29;106.66
216;HTU21D;70668;48.81286795;9.14184224;2024-03-23T04:49:26;10.13;106.85
216;HTU21D;70668;48.81286795;9.14184224;2024-03-23T04:51:52;10.21;107.37
216;HTU21D;70668;48.81286795;9.14184224;2024-03-23T04:54:18;10.14;107.51
216;HTU21D;70668;48.81286795;9.14184224;2024-03-23T04:56:46;10.21;107.99
216;HTU21D;70668;48.81286795;9.14184224;2024-03-23T04:59:12;10.21;109.08
216;HTU21D;70668;48.81286795;9.14184224;2024-03-23T05:01:38;10.23;108.38
216;HTU21D;70668;48.81286795;9.14184224;2024-03-23T05:04:08;10.22;106.14
216;HTU21D;70668;48.81286795;9.14184224;2024-03-23T05:06:34;10.16;106.43
216;HTU21D;70668;48.81286795;9.14184224;2024-03-23T05:09:00;10.18;105.82
216;HTU21D;70668;48.81286795;9.14184224;2024-03-23T05:11:26;10.11;106.12
216;HTU21D;70668;48.81286795;9.14184224;2024-03-23T05:13:54;10.18;105.27
216;HTU21D;70668;48.81286795;9.14184224;2024-03-23T05:16:20;10.10;103.34
216;HTU21D;70668;48.81286795;9.14184224;2024-03-23T05:18:46;10.13;102.73
216;HTU21D;70668;48.81286795;9.14184224;2024-03-23T05:21:12;10.19;103.54
216;HTU21D;70668;48.81286795;9.14184224;2024-03-23T05:23:38;10.18;102.26
216;HTU21D;70668;48.81286795;9.14184224;2024-03-23T05:26:04;10.10;102.42
216;HTU21D;70668;48.81286795;9.14184224;2024-03-23T05:28:30;9.97;103.05
216;HTU21D;70668;48.81286795;9.14184224;2024-03-23T05:30:58;10.06;104.32
216;HTU21D;70668;48.81286795;9.14184224;2024-03-23T05:33:24;9.89;105.04
216;HTU21D;70668;48.81286795;9.14184224;2024-03-23T05:35:56;9.91;104.26
216;HTU21D;70668;48.81286795;9.14184224;2024-03-23T05:38:22;9.81;104.33
216;HTU21D;70668;48.81286795;9.14184224;2024-03-23T05:40:53;9.89;103.49
216;HTU21D;70668;48.81286795;9.14184224;2024-03-23T05:43:19;9.96;103.85
216;HTU21D;70668;48.81286795;9.14184224;2024-03-23T05:45:45;9.79;102.42
216;HTU21D;70668;48.81286795;9.14184224;2024-03-23T05:48:13;9.64;102.99
216;HTU21D;70668;48.81286795;9.14184224;2024-03-23T05:50:40;9.49;104.12
216;HTU21D;70668;48.81286795;9.14184224;2024-03-23T05:53:05;9.50;105.53
216;HTU21D;70668;48.81286795;9.14184224;2024-03-23T05:55:31;9.36;104.24
216;HTU21D;70668;48.81286795;9.14184224;2024-03-23T05:57:58;9.33;102.28
216;HTU21D;70668;48.81286795;9.14184224;2024-03-23T06:00:23;9.30;98.18
216;HTU21D;70668;48.81286795;9.14184224;2024-03-23T06:02:50;9.37;98.89
216;HTU21D;70668;48.81286795;9.14184224;2024-03-23T06:05:18;9.20;99.60
216;HTU21D;70668;48.81286795;9.14184224;2024-03-23T06:07:44;9.26;100.12
216;HTU21D;70668;48.81286795;9.14184224;2024-03-23T06:10:10;9.10;100.06
216;HTU21D;70668;48.81286795;9.14184224;2024-03-23T06:12:36;9.16;100.56
216;HTU21D;70668;48.81286795;9.14184224;2024-03-23T06:15:03;9.14;100.06
216;HTU21D;70668;48.81286795;9.14184224;2024-03-23T06:17:29;9.08;101.03
216;HTU21D;70668;48.81286795;9.14184224;2024-03-23T06:19:55;9.10;100.45
216;HTU21D;70668;48.81286795;9.14184224;2024-03-23T06:22:23;9.17;100.41
216;HTU21D;70668;48.81286795;9.14184224;2024-03-23T06:24:49;9.10;98.61
216;HTU21D;70668;48.81286795;9.14184224;2024-03-23T06:27:15;9.12;99.07
216;HTU21D;70668;48.81286795;9.14184224;2024-03-23T06:29:41;9.08;98.30
216;HTU21D;70668;48.81286795;9.14184224;2024-03-23T06:32:07;9.02;97.52
216;HTU21D;70668;48.81286795;9.14184224;2024-03-23T06:34:33;9.11;98.19
216;HTU21D;70668;48.81286795;9.14184224;2024-03-23T06:36:59;9.02;98.13
216;HTU21D;70668;48.81286795;9.14184224;2024-03-23T06:39:27;9.04;97.59
216;HTU21D;70668;48.81286795;9.14184224;2024-03-23T06:41:54;8.98;97.20
216;HTU21D;70668;48.81286795;9.14184224;2024-03-23T06:44:21;8.98;97.82
216;HTU21D;70668;48.81286795;9.14184224;2024-03-23T06:46:47;9.01;96.80
216;HTU21D;70668;48.81286795;9.14184224;2024-03-23T06:49:13;8.87;96.77
216;HTU21D;70668;48.81286795;9.14184224;2024-03-23T06:51:39;8.86;96.15
216;HTU21D;70668;48.81286795;9.14184224;2024-03-23T06:54:05;8.77;97.99
216;HTU21D;70668;48.81286795;9.14184224;2024-03-23T06:56:34;8.77;97.74
216;HTU21D;70668;48.81286795;9.14184224;2024-03-23T06:59:00;8.80;97.29
216;HTU21D;70668;48.81286795;9.14184224;2024-03-23T07:01:26;8.72;97.97
216;HTU21D;70668;48.81286795;9.14184224;2024-03-23T07:03:52;8.72;97.49
216;HTU21D;70668;48.81286795;9.14184224;2024-03-23T07:06:17;8.70;96.62
216;HTU21D;70668;48.81286795;9.14184224;2024-03-23T07:08:43;8.86;95.86
216;HTU21D;70668;48.81286795;9.14184224;2024-03-23T07:11:09;8.77;97.21
216;HTU21D;70668;48.81286795;9.14184224;2024-03-23T07:13:38;8.80;95.68
216;HTU21D;70668;48.81286795;9.14184224;2024-03-23T07:16:04;8.82;95.97
216;HTU21D;70668;48.81286795;9.14184224;2024-03-23T07:18:30;8.89;95.76
216;HTU21D;70668;48.81286795;9.14184224;2024-03-23T07:20:57;9.11;95.68
216;HTU21D;70668;48.81286795;9.14184224;2024-03-23T07:23:23;9.03;94.91
216;HTU21D;70668;48.81286795;9.14184224;2024-03-23T07:25:58;9.04;95.35
216;HTU21D;70668;48.81286795;9.14184224;2024-03-23T07:28:24;8.98;95.20
216;HTU21D;70668;48.81286795;9.14184224;2024-03-23T07:31:04;8.90;95.52
216;HTU21D;70668;48.81286795;9.14184224;2024-03-23T07:33:31;8.67;97.02
216;HTU21D;70668;48.81286795;9.14184224;2024-03-23T07:35:57;8.77;97.00
216;HTU21D;70668;48.81286795;9.14184224;2024-03-23T07:38:24;8.74;97.42
216;HTU21D;70668;48.81286795;9.14184224;2024-03-23T07:40:50;8.61;97.22
216;HTU21D;70668;48.81286795;9.14184224;2024-03-23T07:43:16;8.45;98.03
216;HTU21D;70668;48.81286795;9.14184224;2024-03-23T07:45:41;8.22;99.93
216;HTU21D;70668;48.81286795;9.14184224;2024-03-23T07:48:10;8.50;100.96
216;HTU21D;70668;48.81286795;9.14184224;2024-03-23T07:50:36;8.22;100.19
216;HTU21D;70668;48.81286795;9.14184224;2024-03-23T07:53:02;8.20;100.87
216;HTU21D;70668;48.81286795;9.14184224;2024-03-23T07:55:28;8.09;102.18
216;HTU21D;70668;48.81286795;9.14184224;2024-03-23T07:57:54;8.06;100.54
216;HTU21D;70668;48.81286795;9.14184224;2024-03-23T08:00:20;8.09;100.48
216;HTU21D;70668;48.81286795;9.14184224;2024-03-23T08:02:46;8.26;101.47
216;HTU21D;70668;48.81286795;9.14184224;2024-03-23T08:05:15;8.09;101.39
216;HTU21D;70668;48.81286795;9.14184224;2024-03-23T08:07:41;7.96;103.12
216;HTU21D;70668;48.81286795;9.14184224;2024-03-23T08:10:07;8.14;102.53
216;HTU21D;70668;48.81286795;9.14184224;2024-03-23T08:12:33;8.26;102.28
216;HTU21D;70668;48.81286795;9.14184224;2024-03-23T08:14:58;8.16;103.59
216;HTU21D;70668;48.81286795;9.14184224;2024-03-23T08:17:24;8.08;103.85
216;HTU21D;70668;48.81286795;9.14184224;2024-03-23T08:19:50;8.22;104.32
216;HTU21D;70668;48.81286795;9.14184224;2024-03-23T08:22:19;8.22;103.68
216;HTU21D;70668;48.81286795;9.14184224;2024-03-23T08:24:45;8.06;103.07
216;HTU21D;70668;48.81286795;9.14184224;2024-03-23T08:27:10;7.91;102.17
216;HTU21D;70668;48.81286795;9.14184224;2024-03-23T08:29:36;7.89;100.40
216;HTU21D;70668;48.81286795;9.14184224;2024-03-23T08:32:02;7.71;100.84
216;HTU21D;70668;48.81286795;9.14184224;2024-03-23T08:34:28;7.14;107.47
216;HTU21D;70668;48.81286795;9.14184224;2024-03-23T08:36:54;7.33;106.09
216;HTU21D;70668;48.81286795;9.14184224;2024-03-23T08:39:23;7.54;107.06
216;HTU21D;70668;48.81286795;9.14184224;2024-03-23T08:41:50;7.72;105.45
216;HTU21D;70668;48.81286795;9.14184224;2024-03-23T08:44:16;7.76;102.02
216;HTU21D;70668;48.81286795;9.14184224;2024-03-23T08:46:42;7.89;102.60
216;HTU21D;70668;48.81286795;9.14184224;2024-03-23T08:49:08;7.72;101.17
216;HTU21D;70668;48.81286795;9.14184224;2024-03-23T08:51:34;7.78;101.37
216;HTU21D;70668;48.81286795;9.14184224;2024-03-23T08:54:00;6.59;104.10
216;HTU21D;70668;48.81286795;9.14184224;2024-03-23T08:56:28;6.54;104.75
216;HTU21D;70668;48.81286795;9.14184224;2024-03-23T08:58:54;6.86;102.35
216;HTU21D;70668;48.81286795;9.14184224;2024-03-23T09:01:20;6.93;100.35
216;HTU21D;70668;48.81286795;9.14184224;2024-03-23T09:03:47;7.25;101.19
216;HTU21D;70668;48.81286795;9.14184224;2024-03-23T09:06:14;7.35;100.50
216;HTU21D;70668;48.81286795;9.14184224;2024-03-23T09:08:40;7.54;99.82
216;HTU21D;70668;48.81286795;9.14184224;2024-03-23T09:11:07;7.56;100.50
216;HTU21D;70668;48.81286795;9.14184224;2024-03-23T09:13:37;7.59;99.63
216;HTU21D;70668;48.81286795;9.14184224;2024-03-23T09:16:05;7.77;100.20
216;HTU21D;70668;48.81286795;9.14184224;2024-03-23T09:18:31;7.84;98.43
216;HTU21D;70668;48.81286795;9.14184224;2024-03-23T09:20:58;7.91;95.52
216;HTU21D;70668;48.81286795;9.14184224;2024-03-23T09:23:24;7.90;92.15
216;HTU21D;70668;48.81286795;9.14184224;2024-03-23T09:25:50;8.13;93.46
216;HTU21D;70668;48.81286795;9.14184224;2024-03-23T09:28:16;8.18;92.36
216;HTU21D;70668;48.81286795;9.14184224;2024-03-23T09:30:44;8.11;91.47
216;HTU21D;70668;48.81286795;9.14184224;2024-03-23T09:33:10;8.19;91.61
216;HTU21D;70668;48.81286795;9.14184224;2024-03-23T09:35:37;8.53;92.25
216;HTU21D;70668;48.81286795;9.14184224;2024-03-23T09:38:03;8.58;92.29
216;HTU21D;70668;48.81286795;9.14184224;2024-03-23T09:40:29;9.00;92.76
216;HTU21D;70668;48.81286795;9.14184224;2024-03-23T09:42:55;8.64;92.21
216;HTU21D;70668;48.81286795;9.14184224;2024-03-23T09:45:23;8.77;92.01
216;HTU21D;70668;48.81286795;9.14184224;2024-03-23T09:47:55;8.72;91.56
216;HTU21D;70668;48.81286795;9.14184224;2024-03-23T09:50:21;8.72;91.11
216;HTU21D;70668;48.81286795;9.14184224;2024-03-23T09:52:47;8.72;91.15
216;HTU21D;70668;48.81286795;9.14184224;2024-03-23T09:55:13;8.80;90.89
216;HTU21D;70668;48.81286795;9.14184224;2024-03-23T09:57:39;8.85;86.67
216;HTU21D;70668;48.81286795;9.14184224;2024-03-23T10:00:06;9.02;83.29
216;HTU21D;70668;48.81286795;9.14184224;2024-03-23T10:02:34;8.88;82.34
216;HTU21D;70668;48.81286795;9.14184224;2024-03-23T10:05:03;8.96;79.41
216;HTU21D;70668;48.81286795;9.14184224;2024-03-23T10:07:29;9.19;78.30
216;HTU21D;70668;48.81286795;9.14184224;2024-03-23T10:09:55;9.25;76.47
216;HTU21D;70668;48.81286795;9.14184224;2024-03-23T10:12:23;9.37;71.39
216;HTU21D;70668;48.81286795;9.14184224;2024-03-23T10:14:49;9.35;73.54
216;HTU21D;70668;48.81286795;9.14184224;2024-03-23T10:17:16;9.69;70.98
216;HTU21D;70668;48.81286795;9.14184224;2024-03-23T10:19:44;9.83;75.76
216;HTU21D;70668;48.81286795;9.14184224;2024-03-23T10:22:13;9.76;72.23
216;HTU21D;70668;48.81286795;9.14184224;2024-03-23T10:24:40;9.57;69.61
216;HTU21D;70668;48.81286795;9.14184224;2024-03-23T10:27:06;9.63;69.72
216;HTU21D;70668;48.81286795;9.14184224;2024-03-23T10:29:31;9.88;70.87
216;HTU21D;70668;48.81286795;9.14184224;2024-03-23T10:32:11;9.53;70.52
216;HTU21D;70668;48.81286795;9.14184224;2024-03-23T10:34:37;9.80;67.62
216;HTU21D;70668;48.81286795;9.14184224;2024-03-23T10:37:04;10.52;67.94
216;HTU21D;70668;48.81286795;9.14184224;2024-03-23T10:39:34;10.00;68.03
216;HTU21D;70668;48.81286795;9.14184224;2024-03-23T10:42:02;9.76;68.19
216;HTU21D;70668;48.81286795;9.14184224;2024-03-23T10:44:29;9.21;66.47
216;HTU21D;70668;48.81286795;9.14184224;2024-03-23T10:46:55;9.06;70.60
216;HTU21D;70668;48.81286795;9.14184224;2024-03-23T10:49:21;8.19;82.94
216;HTU21D;70668;48.81286795;9.14184224;2024-03-23T10:51:48;7.22;94.32
216;HTU21D;70668;48.81286795;9.14184224;2024-03-23T10:54:14;7.14;93.88
216;HTU21D;70668;48.81286795;9.14184224;2024-03-23T10:56:43;7.17;97.68
216;HTU21D;70668;48.81286795;9.14184224;2024-03-23T10:59:09;6.67;98.53
216;HTU21D;70668;48.81286795;9.14184224;2024-03-23T11:01:35;6.16;100.14
216;HTU21D;70668;48.81286795;9.14184224;2024-03-23T11:04:29;5.90;108.69
216;HTU21D;70668;48.81286795;9.14184224;2024-03-23T11:06:55;5.35;105.89
216;HTU21D;70668;48.81286795;9.14184224;2024-03-23T11:09:40;5.22;106.50
216;HTU21D;70668;48.81286795;9.14184224;2024-03-23T11:12:26;5.81;107.53
216;HTU21D;70668;48.81286795;9.14184224;2024-03-23T11:14:53;6.07;107.58
216;HTU21D;70668;48.81286795;9.14184224;2024-03-23T11:17:19;6.33;107.65
216;HTU21D;70668;48.81286795;9.14184224;2024-03-23T11:19:52;6.33;105.28
216;HTU21D;70668;48.81286795;9.14184224;2024-03-23T11:22:40;6.58;104.08
216;HTU21D;70668;48.81286795;9.14184224;2024-03-23T11:25:14;6.58;101.48
216;HTU21D;70668;48.81286795;9.14184224;2024-03-23T11:27:43;7.28;99.96
216;HTU21D;70668;48.81286795;9.14184224;2024-03-23T11:30:15;7.24;100.27
216;HTU21D;70668;48.81286795;9.14184224;2024-03-23T11:32:42;7.18;98.98
216;HTU21D;70668;48.81286795;9.14184224;2024-03-23T11:35:08;7.44;99.06
216;HTU21D;70668;48.81286795;9.14184224;2024-03-23T11:37:35;7.93;97.51
216;HTU21D;70668;48.81286795;9.14184224;2024-03-23T11:40:16;8.23;96.41
216;HTU21D;70668;48.81286795;9.14184224;2024-03-23T11:42:45;8.03;89.87
216;HTU21D;70668;48.81286795;9.14184224;2024-03-23T11:45:12;7.99;91.00
216;HTU21D;70668;48.81286795;9.14184224;2024-03-23T11:47:38;7.90;86.89
216;HTU21D;70668;48.81286795;9.14184224;2024-03-23T11:50:05;7.99;87.86
216;HTU21D;70668;48.81286795;9.14184224;2024-03-23T11:52:31;8.19;85.63
216;HTU21D;70668;48.81286795;9.14184224;2024-03-23T11:55:03;8.55;87.49
216;HTU21D;70668;48.81286795;9.14184224;2024-03-23T11:57:29;8.24;85.09
216;HTU21D;70668;48.81286795;9.14184224;2024-03-23T11:59:58;8.42;83.93
216;HTU21D;70668;48.81286795;9.14184224;2024-03-23T12:02:24;8.17;83.72
216;HTU21D;70668;48.81286795;9.14184224;2024-03-23T12:04:50;8.46;82.69
216;HTU21D;70668;48.81286795;9.14184224;2024-03-23T12:07:17;8.42;81.07
216;HTU21D;70668;48.81286795;9.14184224;2024-03-23T12:09:45;8.45;77.16
216;HTU21D;70668;48.81286795;9.14184224;2024-03-23T12:12:14;8.89;75.53
216;HTU21D;70668;48.81286795;9.14184224;2024-03-23T12:14:41;9.49;73.28
216;HTU21D;70668;48.81286795;9.14184224;2024-03-23T12:17:11;9.74;72.56
216;HTU21D;70668;48.81286795;9.14184224;2024-03-23T12:19:37;10.05;69.49
216;HTU21D;70668;48.81286795;9.14184224;2024-03-23T12:22:04;10.40;71.29
216;HTU21D;70668;48.81286795;9.14184224;2024-03-23T12:24:30;10.23;70.36
216;HTU21D;70668;48.81286795;9.14184224;2024-03-23T12:27:00;10.01;65.14
216;HTU21D;70668;48.81286795;9.14184224;2024-03-23T12:29:27;10.73;62.00
216;HTU21D;70668;48.81286795;9.14184224;2024-03-23T12:31:53;11.19;59.09
216;HTU21D;70668;48.81286795;9.14184224;2024-03-23T12:34:22;10.68;59.43
216;HTU21D;70668;48.81286795;9.14184224;2024-03-23T12:36:47;10.53;61.47
216;HTU21D;70668;48.81286795;9.14184224;2024-03-23T12:39:13;10.22;66.36
216;HTU21D;70668;48.81286795;9.14184224;2024-03-23T12:41:39;9.83;65.67
216;HTU21D;70668;48.81286795;9.14184224;2024-03-23T12:44:05;9.54;67.07
216;HTU21D;70668;48.81286795;9.14184224;2024-03-23T12:46:31;9.27;67.43
216;HTU21D;70668;48.81286795;9.14184224;2024-03-23T12:48:58;9.27;68.42
216;HTU21D;70668;48.81286795;9.14184224;2024-03-23T12:51:26;9.45;67.91
216;HTU21D;70668;48.81286795;9.14184224;2024-03-23T12:53:54;11.14;62.58
216;HTU21D;70668;48.81286795;9.14184224;2024-03-23T12:56:20;10.57;61.04
216;HTU21D;70668;48.81286795;9.14184224;2024-03-23T12:58:46;12.00;56.23
216;HTU21D;70668;48.81286795;9.14184224;2024-03-23T13:01:13;10.73;61.54
216;HTU21D;70668;48.81286795;9.14184224;2024-03-23T13:03:39;11.93;55.86
216;HTU21D;70668;48.81286795;9.14184224;2024-03-23T13:06:05;11.90;52.57
216;HTU21D;70668;48.81286795;9.14184224;2024-03-23T13:08:33;11.81;51.23
216;HTU21D;70668;48.81286795;9.14184224;2024-03-23T13:10:59;12.66;49.71
216;HTU21D;70668;48.81286795;9.14184224;2024-03-23T13:13:28;12.92;50.12
216;HTU21D;70668;48.81286795;9.14184224;2024-03-23T13:17:54;11.52;49.78
216;HTU21D;70668;48.81286795;9.14184224;2024-03-23T13:20:20;11.48;50.40
216;HTU21D;70668;48.81286795;9.14184224;2024-03-23T13:22:46;11.78;48.09
216;HTU21D;70668;48.81286795;9.14184224;2024-03-23T13:25:12;10.94;49.95
216;HTU21D;70668;48.81286795;9.14184224;2024-03-23T13:27:38;10.34;50.05
216;HTU21D;70668;48.81286795;9.14184224;2024-03-23T13:30:06;10.84;50.68
216;HTU21D;70668;48.81286795;9.14184224;2024-03-23T13:32:32;10.93;48.70
216;HTU21D;70668;48.81286795;9.14184224;2024-03-23T13:35:00;10.49;46.89
216;HTU21D;70668;48.81286795;9.14184224;2024-03-23T13:37:27;10.25;47.87
216;HTU21D;70668;48.81286795;9.14184224;2024-03-23T13:39:52;10.62;47.26
216;HTU21D;70668;48.81286795;9.14184224;2024-03-23T13:42:18;11.09;48.42
216;HTU21D;70668;48.81286795;9.14184224;2024-03-23T13:44:45;11.02;46.68
216;HTU21D;70668;48.81286795;9.14184224;2024-03-23T13:47:11;11.07;45.00
216;HTU21D;70668;48.81286795;9.14184224;2024-03-23T13:49:37;11.13;46.62
216;HTU21D;70668;48.81286795;9.14184224;2024-03-23T13:52:06;11.29;45.61
216;HTU21D;70668;48.81286795;9.14184224;2024-03-23T13:54:32;11.39;47.96
216;HTU21D;70668;48.81286795;9.14184224;2024-03-23T13:56:58;10.31;55.97
216;HTU21D;70668;48.81286795;9.14184224;2024-03-23T13:59:24;9.59;70.93
216;HTU21D;70668;48.81286795;9.14184224;2024-03-23T14:01:50;7.64;88.26
216;HTU21D;70668;48.81286795;9.14184224;2024-03-23T14:04:17;6.94;93.71
216;HTU21D;70668;48.81286795;9.14184224;2024-03-23T14:06:43;6.46;97.58
216;HTU21D;70668;48.81286795;9.14184224;2024-03-23T14:09:12;6.07;103.02
216;HTU21D;70668;48.81286795;9.14184224;2024-03-23T14:11:38;5.65;106.51
216;HTU21D;70668;48.81286795;9.14184224;2024-03-23T14:14:04;5.63;108.37
216;HTU21D;70668;48.81286795;9.14184224;2024-03-23T14:16:30;4.03;109.58
216;HTU21D;70668;48.81286795;9.14184224;2024-03-23T14:18:56;3.97;113.29
216;HTU21D;70668;48.81286795;9.14184224;2024-03-23T14:21:22;4.21;114.33
216;HTU21D;70668;48.81286795;9.14184224;2024-03-23T14:23:49;4.20;113.68
216;HTU21D;70668;48.81286795;9.14184224;2024-03-23T14:26:17;4.04;112.75
216;HTU21D;70668;48.81286795;9.14184224;2024-03-23T14:28:43;4.82;114.02